createdAt,value
2018-03-03T00:02:07.965Z,99517.48
2018-03-03T00:04:36.081Z,99513.78
2018-03-03T00:07:04.197Z,99508.52
2018-03-03T00:09:32.319Z,99510.29
2018-03-03T00:12:00.433Z,99509.23
2018-03-03T00:14:28.540Z,99502.69
2018-03-03T00:16:56.677Z,99503.13
2018-03-03T00:19:24.798Z,99495.89
2018-03-03T00:21:52.938Z,99499.73
2018-03-03T00:24:21.049Z,99486.11
2018-03-03T00:26:49.164Z,99480.08
2018-03-03T00:29:17.300Z,99480.66
2018-03-03T00:31:45.431Z,99483.73
2018-03-03T00:34:13.547Z,99489.04
2018-03-03T00:36:41.756Z,99480.34
2018-03-03T00:39:09.872Z,99481.64
2018-03-03T00:41:37.996Z,99476.66
2018-03-03T00:44:06.126Z,99475.34
2018-03-03T00:46:34.242Z,99477.69
2018-03-03T00:49:02.717Z,99477.33
2018-03-03T00:51:30.847Z,99469.00
2018-03-03T00:53:58.970Z,99482.50
2018-03-03T00:56:27.093Z,99475.37
2018-03-03T00:58:55.216Z,99474.33
2018-03-03T01:01:23.322Z,99479.23
2018-03-03T01:03:51.455Z,99482.92
2018-03-03T01:06:19.576Z,99482.36
2018-03-03T01:08:47.710Z,99484.30
2018-03-03T01:11:15.816Z,99474.09
2018-03-03T01:13:43.935Z,99480.20
2018-03-03T01:16:12.068Z,99480.20
2018-03-03T01:18:40.180Z,99474.15
2018-03-03T01:21:08.295Z,99469.83
2018-03-03T01:23:36.425Z,99471.37
2018-03-03T01:26:04.548Z,99467.67
2018-03-03T01:28:32.677Z,99465.89
2018-03-03T01:31:00.805Z,99469.25
2018-03-03T01:33:28.908Z,99471.09
2018-03-03T01:35:57.018Z,99469.67
2018-03-03T01:38:25.142Z,99473.80
2018-03-03T01:40:53.542Z,99468.28
2018-03-03T01:43:21.670Z,99471.24
2018-03-03T01:45:49.792Z,99461.77
2018-03-03T01:48:17.911Z,99455.64
2018-03-03T01:50:46.012Z,99460.44
2018-03-03T01:53:14.132Z,99455.61
2018-03-03T01:55:42.240Z,99452.52
2018-03-03T01:58:10.353Z,99443.52
2018-03-03T02:00:38.466Z,99444.91
2018-03-03T02:03:06.600Z,99438.67
2018-03-03T02:05:34.723Z,99440.23
2018-03-03T02:08:02.815Z,99434.27
2018-03-03T02:10:30.927Z,99433.62
2018-03-03T02:12:59.044Z,99436.14
2018-03-03T02:15:27.203Z,99435.02
2018-03-03T02:17:55.325Z,99429.05
2018-03-03T02:20:23.422Z,99435.39
2018-03-03T02:22:51.551Z,99438.69
2018-03-03T02:25:19.666Z,99427.67
2018-03-03T02:27:47.783Z,99421.23
2018-03-03T02:30:15.926Z,99419.80
2018-03-03T02:32:44.025Z,99415.45
2018-03-03T02:35:12.136Z,99414.77
2018-03-03T02:37:40.308Z,99416.58
2018-03-03T02:40:08.436Z,99417.28
2018-03-03T02:42:36.653Z,99420.34
2018-03-03T02:45:04.768Z,99416.04
2018-03-03T02:47:32.905Z,99413.39
2018-03-03T02:50:01.007Z,99406.07
2018-03-03T02:52:29.146Z,99406.42
2018-03-03T02:54:57.250Z,99405.59
2018-03-03T02:57:25.366Z,99410.94
2018-03-03T02:59:53.477Z,99413.87
2018-03-03T03:02:21.584Z,99412.39
2018-03-03T03:04:49.710Z,99407.84
2018-03-03T03:07:17.820Z,99408.72
2018-03-03T03:09:45.939Z,99399.03
2018-03-03T03:12:14.084Z,99395.91
2018-03-03T03:14:42.203Z,99387.92
2018-03-03T03:17:10.397Z,99382.87
2018-03-03T03:19:38.537Z,99378.09
2018-03-03T03:22:06.657Z,99380.62
2018-03-03T03:24:34.776Z,99372.88
2018-03-03T03:27:03.211Z,99368.27
2018-03-03T03:29:31.336Z,99369.73
2018-03-03T03:31:59.471Z,99367.91
2018-03-03T03:34:27.596Z,99362.28
2018-03-03T03:36:55.720Z,99359.38
2018-03-03T03:39:23.835Z,99359.12
2018-03-03T03:41:51.976Z,99352.27
2018-03-03T03:44:20.105Z,99347.70
2018-03-03T03:46:48.244Z,99350.41
2018-03-03T03:49:16.378Z,99350.50
2018-03-03T03:51:44.488Z,99354.98
2018-03-03T03:54:12.615Z,99345.52
2018-03-03T03:56:41.006Z,99348.47
2018-03-03T03:59:09.124Z,99345.16
2018-03-03T04:01:37.257Z,99333.97
2018-03-03T04:04:05.363Z,99338.19
2018-03-03T04:06:33.504Z,99337.66
2018-03-03T04:09:01.752Z,99336.09
2018-03-03T04:11:29.950Z,99328.02
2018-03-03T04:13:58.077Z,99329.38
2018-03-03T04:16:26.206Z,99327.75
2018-03-03T04:18:54.315Z,99325.03
2018-03-03T04:21:22.456Z,99321.05
2018-03-03T04:23:50.623Z,99324.16
2018-03-03T04:26:18.765Z,99326.02
2018-03-03T04:28:46.883Z,99324.66
2018-03-03T04:31:14.999Z,99320.86
2018-03-03T04:33:43.114Z,99318.64
2018-03-03T04:36:11.271Z,99310.40
2018-03-03T04:38:39.379Z,99319.16
2018-03-03T04:41:07.496Z,99308.42
2018-03-03T04:43:35.624Z,99305.10
2018-03-03T04:46:03.741Z,99318.19
2018-03-03T04:48:31.874Z,99314.48
2018-03-03T04:51:00.000Z,99312.52
2018-03-03T04:53:31.536Z,99312.30
2018-03-03T04:55:59.668Z,99304.77
2018-03-03T05:01:35.174Z,99308.59
2018-03-03T05:04:08.754Z,99302.50
2018-03-03T05:06:42.416Z,99312.39
2018-03-03T05:09:10.523Z,99312.30
2018-03-03T05:11:38.627Z,99307.11
2018-03-03T05:14:12.521Z,99306.83
2018-03-03T05:16:46.185Z,99305.28
2018-03-03T05:19:19.999Z,99305.05
2018-03-03T05:21:53.670Z,99303.89
2018-03-03T05:27:38.358Z,99301.34
2018-03-03T05:30:21.363Z,99303.60
2018-03-03T05:36:01.136Z,99298.28
2018-03-03T05:41:37.135Z,99298.13
2018-03-03T05:44:06.675Z,99296.02
2018-03-03T05:46:40.420Z,99293.23
2018-03-03T05:49:10.475Z,99293.20
2018-03-03T05:51:38.587Z,99294.19
2018-03-03T05:57:17.159Z,99284.63
2018-03-03T05:59:50.805Z,99289.32
2018-03-03T06:02:26.556Z,99289.82
2018-03-03T06:08:21.534Z,99292.52
2018-03-03T06:10:49.665Z,99293.55
2018-03-03T06:13:17.776Z,99300.95
2018-03-03T06:15:45.918Z,99299.52
2018-03-03T06:18:14.045Z,99303.85
2018-03-03T06:20:42.163Z,99305.91
2018-03-03T06:23:10.335Z,99300.55
2018-03-03T06:25:41.855Z,99301.47
2018-03-03T06:28:09.977Z,99302.58
2018-03-03T06:30:38.083Z,99296.89
2018-03-03T06:33:06.225Z,99300.30
2018-03-03T06:35:34.335Z,99297.77
2018-03-03T06:38:02.443Z,99302.61
2018-03-03T06:40:30.557Z,99300.63
2018-03-03T06:42:58.697Z,99301.39
2018-03-03T06:45:26.943Z,99303.55
2018-03-03T06:47:55.106Z,99303.88
2018-03-03T06:50:23.219Z,99301.00
2018-03-03T06:52:51.335Z,99303.44
2018-03-03T06:55:19.458Z,99301.92
2018-03-03T06:57:47.592Z,99305.59
2018-03-03T07:00:15.699Z,99306.84
2018-03-03T07:02:43.809Z,99308.34
2018-03-03T07:05:11.935Z,99306.06
2018-03-03T07:07:40.098Z,99307.17
2018-03-03T07:10:08.166Z,99306.72
2018-03-03T07:12:36.291Z,99305.94
2018-03-03T07:15:06.790Z,99316.52
2018-03-03T07:17:34.937Z,99308.19
2018-03-03T07:20:03.055Z,99316.91
2018-03-03T07:22:31.230Z,99316.61
2018-03-03T07:24:59.337Z,99305.56
2018-03-03T07:27:27.435Z,99314.95
2018-03-03T07:29:55.544Z,99316.16
2018-03-03T07:32:23.708Z,99312.63
2018-03-03T07:34:51.805Z,99311.44
2018-03-03T07:37:19.926Z,99310.38
2018-03-03T07:39:48.062Z,99315.41
2018-03-03T07:42:16.190Z,99318.81
2018-03-03T07:44:48.096Z,99312.81
2018-03-03T07:47:16.225Z,99320.48
2018-03-03T07:49:44.336Z,99318.64
2018-03-03T07:52:12.508Z,99316.70
2018-03-03T07:54:40.733Z,99305.28
2018-03-03T07:57:13.463Z,99307.96
2018-03-03T07:59:41.623Z,99314.61
2018-03-03T08:02:09.775Z,99312.67
2018-03-03T08:04:37.883Z,99310.64
2018-03-03T08:07:05.990Z,99304.72
2018-03-03T08:09:34.161Z,99307.66
2018-03-03T08:12:02.287Z,99309.50
2018-03-03T08:14:30.402Z,99316.71
2018-03-03T08:16:58.535Z,99310.89
2018-03-03T08:19:26.658Z,99310.20
2018-03-03T08:21:54.760Z,99307.95
2018-03-03T08:24:22.893Z,99311.51
2018-03-03T08:26:51.047Z,99314.56
2018-03-03T08:29:19.130Z,99311.25
2018-03-03T08:31:47.260Z,99315.03
2018-03-03T08:34:15.370Z,99317.71
2018-03-03T08:36:43.485Z,99320.81
2018-03-03T08:39:11.605Z,99319.16
2018-03-03T08:41:39.753Z,99323.51
2018-03-03T08:44:07.883Z,99321.65
2018-03-03T08:46:36.050Z,99327.94
2018-03-03T08:49:04.187Z,99317.88
2018-03-03T08:51:32.289Z,99322.86
2018-03-03T08:54:04.662Z,99325.82
2018-03-03T08:56:32.767Z,99319.92
2018-03-03T08:59:00.901Z,99325.07
2018-03-03T09:01:29.011Z,99330.81
2018-03-03T09:04:00.362Z,99326.99
2018-03-03T09:06:28.476Z,99329.81
2018-03-03T09:08:56.615Z,99325.88
2018-03-03T09:11:24.737Z,99325.73
2018-03-03T09:13:52.863Z,99329.39
2018-03-03T09:16:21.396Z,99332.08
2018-03-03T09:18:49.503Z,99339.00
2018-03-03T09:21:18.031Z,99339.02
2018-03-03T09:23:46.082Z,99334.59
2018-03-03T09:26:14.179Z,99335.27
2018-03-03T09:28:42.318Z,99337.25
2018-03-03T09:31:16.909Z,99327.51
2018-03-03T09:33:44.999Z,99337.87
2018-03-03T09:36:13.116Z,99342.61
2018-03-03T09:38:41.252Z,99337.51
2018-03-03T09:41:09.347Z,99336.16
2018-03-03T09:43:37.447Z,99332.58
2018-03-03T09:46:05.575Z,99340.02
2018-03-03T09:48:33.691Z,99335.64
2018-03-03T09:51:01.787Z,99342.06
2018-03-03T09:53:29.935Z,99333.28
2018-03-03T09:55:58.047Z,99326.63
2018-03-03T09:58:26.166Z,99327.08
2018-03-03T10:00:54.697Z,99331.55
2018-03-03T10:03:22.804Z,99329.66
2018-03-03T10:05:50.931Z,99328.33
2018-03-03T10:08:19.038Z,99334.57
2018-03-03T10:10:47.185Z,99331.78
2018-03-03T10:13:15.335Z,99337.49
2018-03-03T10:15:43.474Z,99339.18
2018-03-03T10:18:11.578Z,99343.83
2018-03-03T10:20:39.683Z,99338.72
2018-03-03T10:23:07.791Z,99340.64
2018-03-03T10:25:35.921Z,99345.64
2018-03-03T10:28:04.049Z,99352.55
2018-03-03T10:30:32.194Z,99351.79
2018-03-03T10:33:00.332Z,99353.83
2018-03-03T10:35:28.444Z,99354.13
2018-03-03T10:37:56.554Z,99351.27
2018-03-03T10:40:24.658Z,99357.92
2018-03-03T10:42:52.915Z,99344.12
2018-03-03T10:45:21.005Z,99351.88
2018-03-03T10:47:49.159Z,99348.29
2018-03-03T10:50:17.545Z,99349.92
2018-03-03T10:52:45.706Z,99349.08
2018-03-03T10:55:13.834Z,99337.67
2018-03-03T10:57:41.958Z,99348.27
2018-03-03T11:00:10.055Z,99337.52
2018-03-03T11:02:38.298Z,99345.10
2018-03-03T11:05:06.415Z,99346.45
2018-03-03T11:07:34.534Z,99345.26
2018-03-03T11:10:02.638Z,99347.87
2018-03-03T11:12:30.831Z,99335.41
2018-03-03T11:14:58.957Z,99334.55
2018-03-03T11:17:27.089Z,99339.39
2018-03-03T11:19:55.210Z,99340.63
2018-03-03T11:22:23.329Z,99346.94
2018-03-03T11:24:51.445Z,99344.94
2018-03-03T11:27:19.552Z,99342.69
2018-03-03T11:29:47.667Z,99340.03
2018-03-03T11:32:15.893Z,99347.45
2018-03-03T11:34:44.017Z,99343.18
2018-03-03T11:37:12.162Z,99339.17
2018-03-03T11:39:40.265Z,99340.86
2018-03-03T11:42:08.376Z,99346.70
2018-03-03T11:44:36.506Z,99341.20
2018-03-03T11:47:04.622Z,99341.42
2018-03-03T11:49:32.883Z,99344.19
2018-03-03T11:52:01.019Z,99339.06
2018-03-03T11:54:29.265Z,99348.92
2018-03-03T11:56:57.888Z,99349.92
2018-03-03T11:59:27.014Z,99342.23
2018-03-03T12:01:55.114Z,99349.72
2018-03-03T12:04:23.249Z,99352.36
2018-03-03T12:06:51.834Z,99357.22
2018-03-03T12:09:19.933Z,99353.53
2018-03-03T12:11:48.058Z,99350.40
2018-03-03T12:14:16.232Z,99357.11
2018-03-03T12:16:44.404Z,99357.98
2018-03-03T12:19:12.469Z,99351.16
2018-03-03T12:21:40.636Z,99353.97
2018-03-03T12:24:08.740Z,99349.55
2018-03-03T12:26:36.887Z,99354.83
2018-03-03T12:29:04.988Z,99355.41
2018-03-03T12:31:33.108Z,99358.42
2018-03-03T12:34:01.272Z,99355.94
2018-03-03T12:36:29.567Z,99353.27
2018-03-03T12:38:57.788Z,99357.09
2018-03-03T12:41:25.882Z,99355.77
2018-03-03T12:43:53.997Z,99351.70
2018-03-03T12:46:25.181Z,99346.15
2018-03-03T12:48:53.289Z,99348.13
2018-03-03T12:51:21.379Z,99354.95
2018-03-03T12:53:49.499Z,99356.45
2018-03-03T12:56:17.789Z,99358.42
2018-03-03T12:58:45.983Z,99357.33
2018-03-03T13:01:14.026Z,99356.28
2018-03-03T13:03:42.146Z,99354.09
2018-03-03T13:06:10.340Z,99354.77
2018-03-03T13:08:38.589Z,99355.92
2018-03-03T13:11:06.698Z,99355.73
2018-03-03T13:13:34.820Z,99352.15
2018-03-03T13:16:02.974Z,99353.14
2018-03-03T13:18:31.080Z,99360.23
2018-03-03T13:20:59.224Z,99354.55
2018-03-03T13:23:27.347Z,99354.65
2018-03-03T13:25:55.452Z,99354.75
2018-03-03T13:28:23.563Z,99344.32
2018-03-03T13:30:51.691Z,99345.58
2018-03-03T13:33:20.360Z,99350.77
2018-03-03T13:35:48.611Z,99347.52
2018-03-03T13:38:16.703Z,99342.64
2018-03-03T13:40:44.813Z,99341.56
2018-03-03T13:43:13.234Z,99338.75
2018-03-03T13:45:41.346Z,99337.59
2018-03-03T13:48:09.530Z,99339.34
2018-03-03T13:50:37.596Z,99337.37
2018-03-03T13:53:05.839Z,99340.45
2018-03-03T13:55:33.958Z,99336.32
2018-03-03T13:58:02.083Z,99341.74
2018-03-03T14:00:30.227Z,99329.08
2018-03-03T14:02:58.328Z,99331.37
2018-03-03T14:05:26.454Z,99336.16
2018-03-03T14:07:54.596Z,99341.14
2018-03-03T14:10:22.738Z,99344.04
2018-03-03T14:12:50.852Z,99350.73
2018-03-03T14:15:19.048Z,99348.56
2018-03-03T14:17:47.176Z,99350.48
2018-03-03T14:20:15.317Z,99357.70
2018-03-03T14:22:43.410Z,99350.47
2018-03-03T14:25:11.537Z,99343.66
2018-03-03T14:27:39.671Z,99346.16
2018-03-03T14:30:07.783Z,99345.51
2018-03-03T14:32:35.936Z,99339.52
2018-03-03T14:35:04.065Z,99336.27
2018-03-03T14:37:32.197Z,99336.46
2018-03-03T14:40:00.337Z,99339.23
2018-03-03T14:42:28.517Z,99334.25
2018-03-03T14:44:56.609Z,99342.04
2018-03-03T14:47:24.725Z,99335.36
2018-03-03T14:49:52.855Z,99342.59
2018-03-03T14:52:20.968Z,99344.17
2018-03-03T14:54:49.085Z,99350.94
2018-03-03T14:57:17.209Z,99349.97
2018-03-03T14:59:45.476Z,99351.70
2018-03-03T15:02:13.681Z,99352.16
2018-03-03T15:04:41.800Z,99355.94
2018-03-03T15:07:10.133Z,99354.07
2018-03-03T15:09:38.248Z,99358.09
2018-03-03T15:12:06.390Z,99355.48
2018-03-03T15:14:36.430Z,99358.99
2018-03-03T15:17:04.488Z,99363.17
2018-03-03T15:19:32.642Z,99360.35
2018-03-03T15:22:00.768Z,99355.22
2018-03-03T15:24:28.892Z,99362.55
2018-03-03T15:26:57.007Z,99366.71
2018-03-03T15:29:25.124Z,99360.05
2018-03-03T15:31:53.243Z,99361.97
2018-03-03T15:34:21.346Z,99369.80
2018-03-03T15:36:49.452Z,99370.39
2018-03-03T15:39:17.610Z,99380.23
2018-03-03T15:41:45.705Z,99373.73
2018-03-03T15:44:13.804Z,99369.63
2018-03-03T15:46:41.943Z,99371.62
2018-03-03T15:49:10.061Z,99380.48
2018-03-03T15:51:38.202Z,99368.86
2018-03-03T15:54:06.329Z,99369.06
2018-03-03T15:56:34.435Z,99371.91
2018-03-03T15:59:02.555Z,99371.35
2018-03-03T16:01:30.665Z,99375.47
2018-03-03T16:03:58.767Z,99380.23
2018-03-03T16:06:26.901Z,99384.22
2018-03-03T16:08:55.003Z,99391.05
2018-03-03T16:11:23.141Z,99384.72
2018-03-03T16:13:51.266Z,99383.44
2018-03-03T16:16:19.366Z,99378.22
2018-03-03T16:18:47.473Z,99380.67
2018-03-03T16:21:15.607Z,99378.51
2018-03-03T16:23:43.721Z,99381.96
2018-03-03T16:26:11.844Z,99377.81
2018-03-03T16:28:39.972Z,99391.09
2018-03-03T16:31:08.103Z,99386.89
2018-03-03T16:33:36.305Z,99384.03
2018-03-03T16:36:04.429Z,99393.75
2018-03-03T16:38:32.555Z,99389.03
2018-03-03T16:41:00.666Z,99397.72
2018-03-03T16:43:28.771Z,99386.58
2018-03-03T16:45:56.945Z,99394.64
2018-03-03T16:48:25.039Z,99395.27
2018-03-03T16:50:53.789Z,99396.28
2018-03-03T16:53:21.972Z,99401.38
2018-03-03T16:55:50.095Z,99403.73
2018-03-03T16:58:18.198Z,99403.14
2018-03-03T17:00:46.399Z,99402.62
2018-03-03T17:03:14.567Z,99406.62
2018-03-03T17:05:42.681Z,99411.69
2018-03-03T17:08:10.799Z,99403.75
2018-03-03T17:10:38.941Z,99405.29
2018-03-03T17:13:07.052Z,99410.08
2018-03-03T17:15:35.185Z,99411.69
2018-03-03T17:18:03.299Z,99414.13
2018-03-03T17:20:31.436Z,99414.66
2018-03-03T17:23:02.611Z,99420.88
2018-03-03T17:25:30.736Z,99418.22
2018-03-03T17:27:58.853Z,99418.50
2018-03-03T17:30:26.979Z,99422.94
2018-03-03T17:32:55.102Z,99424.52
2018-03-03T17:35:23.212Z,99428.29
2018-03-03T17:37:51.347Z,99425.96
2018-03-03T17:40:19.474Z,99420.13
2018-03-03T17:42:47.571Z,99425.05
2018-03-03T17:45:15.693Z,99429.30
2018-03-03T17:47:43.805Z,99434.73
2018-03-03T17:50:11.930Z,99438.67
2018-03-03T17:52:40.051Z,99441.65
2018-03-03T17:55:08.389Z,99444.05
2018-03-03T17:57:36.562Z,99441.77
2018-03-03T18:00:04.700Z,99445.13
2018-03-03T18:02:32.883Z,99446.20
2018-03-03T18:05:00.987Z,99453.05
2018-03-03T18:07:29.123Z,99457.59
2018-03-03T18:09:57.274Z,99448.73
2018-03-03T18:12:25.399Z,99451.33
2018-03-03T18:14:53.523Z,99454.30
2018-03-03T18:17:21.646Z,99452.87
2018-03-03T18:19:49.778Z,99452.28
2018-03-03T18:22:17.926Z,99459.73
2018-03-03T18:24:46.039Z,99459.46
2018-03-03T18:27:14.173Z,99451.45
2018-03-03T18:29:42.301Z,99448.00
2018-03-03T18:32:10.571Z,99458.80
2018-03-03T18:34:38.646Z,99454.47
2018-03-03T18:37:06.802Z,99459.23
2018-03-03T18:39:34.903Z,99461.26
2018-03-03T18:42:03.019Z,99458.15
2018-03-03T18:44:31.207Z,99456.39
2018-03-03T18:46:59.276Z,99468.88
2018-03-03T18:49:27.406Z,99469.16
2018-03-03T18:51:55.538Z,99469.77
2018-03-03T18:54:23.678Z,99467.00
2018-03-03T18:56:51.779Z,99465.89
2018-03-03T18:59:19.925Z,99475.41
2018-03-03T19:01:48.033Z,99474.83
2018-03-03T19:04:19.941Z,99471.48
2018-03-03T19:06:48.045Z,99480.77
2018-03-03T19:09:16.274Z,99486.35
2018-03-03T19:11:44.408Z,99480.25
2018-03-03T19:14:12.630Z,99485.67
2018-03-03T19:16:40.754Z,99483.56
2018-03-03T19:19:08.890Z,99479.38
2018-03-03T19:21:37.001Z,99485.88
2018-03-03T19:24:05.131Z,99488.91
2018-03-03T19:26:33.243Z,99485.27
2018-03-03T19:29:01.362Z,99487.17
2018-03-03T19:31:29.506Z,99499.04
2018-03-03T19:33:57.617Z,99498.64
2018-03-03T19:36:25.766Z,99492.37
2018-03-03T19:38:53.922Z,99498.49
2018-03-03T19:41:22.167Z,99499.09
2018-03-03T19:43:50.268Z,99492.42
2018-03-03T19:46:18.384Z,99498.58
2018-03-03T19:48:46.518Z,99499.36
2018-03-03T19:51:14.636Z,99506.63
2018-03-03T19:53:42.770Z,99502.53
2018-03-03T19:56:10.888Z,99511.59
2018-03-03T19:58:39.003Z,99505.70
2018-03-03T20:01:07.125Z,99507.05
2018-03-03T20:03:35.260Z,99504.91
2018-03-03T20:06:03.377Z,99505.08
2018-03-03T20:08:31.500Z,99502.16
2018-03-03T20:10:59.644Z,99501.30
2018-03-03T20:13:27.762Z,99488.14
2018-03-03T20:15:55.907Z,99495.80
2018-03-03T20:18:24.004Z,99489.80
2018-03-03T20:20:52.130Z,99489.38
2018-03-03T20:23:20.310Z,99486.79
2018-03-03T20:25:48.408Z,99484.48
2018-03-03T20:28:16.545Z,99488.11
2018-03-03T20:30:44.684Z,99483.45
2018-03-03T20:33:12.795Z,99479.61
2018-03-03T20:35:40.912Z,99478.86
2018-03-03T20:38:09.040Z,99478.73
2018-03-03T20:40:37.144Z,99480.58
2018-03-03T20:43:05.296Z,99485.09
2018-03-03T20:45:33.404Z,99481.28
2018-03-03T20:48:01.543Z,99477.94
2018-03-03T20:50:29.675Z,99481.69
2018-03-03T20:52:57.772Z,99483.39
2018-03-03T20:55:25.897Z,99481.13
2018-03-03T20:57:54.003Z,99474.17
2018-03-03T21:00:22.159Z,99487.39
2018-03-03T21:02:50.310Z,99488.40
2018-03-03T21:05:18.420Z,99483.22
2018-03-03T21:07:46.564Z,99478.48
2018-03-03T21:10:14.685Z,99480.88
2018-03-03T21:12:46.543Z,99481.41
2018-03-03T21:15:14.674Z,99483.98
2018-03-03T21:17:42.845Z,99480.56
2018-03-03T21:20:10.982Z,99484.50
2018-03-03T21:22:39.109Z,99476.66
2018-03-03T21:25:07.234Z,99477.98
2018-03-03T21:27:35.351Z,99478.50
2018-03-03T21:30:03.478Z,99475.84
2018-03-03T21:32:31.597Z,99469.80
2018-03-03T21:34:59.728Z,99478.78
2018-03-03T21:37:27.863Z,99476.25
2018-03-03T21:39:55.974Z,99475.11
2018-03-03T21:42:24.103Z,99470.95
2018-03-03T21:44:52.240Z,99468.83
2018-03-03T21:47:20.362Z,99464.86
2018-03-03T21:49:48.482Z,99465.84
2018-03-03T21:52:16.614Z,99466.45
2018-03-03T21:54:48.057Z,99472.09
2018-03-03T21:57:16.159Z,99472.66
2018-03-03T21:59:47.491Z,99481.41
2018-03-03T22:02:15.616Z,99472.56
2018-03-03T22:04:43.717Z,99476.39
2018-03-03T22:07:11.851Z,99469.79
2018-03-03T22:09:39.952Z,99468.88
2018-03-03T22:12:08.075Z,99473.56
2018-03-03T22:14:36.184Z,99470.51
2018-03-03T22:17:04.309Z,99467.74
2018-03-03T22:19:32.416Z,99470.98
2018-03-03T22:22:00.551Z,99470.84
2018-03-03T22:24:28.668Z,99471.17
2018-03-03T22:26:56.792Z,99472.95
2018-03-03T22:29:24.921Z,99472.79
2018-03-03T22:31:53.029Z,99471.83
2018-03-03T22:34:21.180Z,99478.86
2018-03-03T22:36:49.315Z,99474.35
2018-03-03T22:39:17.404Z,99477.23
2018-03-03T22:41:45.536Z,99482.07
2018-03-03T22:44:13.644Z,99480.01
2018-03-03T22:46:41.807Z,99484.08
2018-03-03T22:49:13.639Z,99479.61
2018-03-03T22:51:41.772Z,99477.01
2018-03-03T22:54:09.875Z,99471.25
2018-03-03T22:56:38.023Z,99478.18
2018-03-03T22:59:06.145Z,99477.77
2018-03-03T23:01:34.267Z,99474.27
2018-03-03T23:04:02.376Z,99472.77
2018-03-03T23:06:30.496Z,99473.42
2018-03-03T23:08:58.606Z,99471.98
2018-03-03T23:11:26.707Z,99475.06
2018-03-03T23:13:54.853Z,99476.09
2018-03-03T23:16:22.959Z,99471.86
2018-03-03T23:18:51.077Z,99471.67
2018-03-03T23:21:19.208Z,99481.60
2018-03-03T23:23:47.450Z,99475.28
2018-03-03T23:26:15.597Z,99479.86
2018-03-03T23:28:43.713Z,99474.16
2018-03-03T23:31:11.859Z,99476.11
2018-03-03T23:33:40.086Z,99471.41
2018-03-03T23:36:08.233Z,99477.33
2018-03-03T23:38:36.420Z,99478.55
2018-03-03T23:41:04.534Z,99473.94
2018-03-03T23:43:32.700Z,99477.93
2018-03-03T23:46:01.197Z,99478.66
2018-03-03T23:48:29.323Z,99484.14
2018-03-03T23:50:57.488Z,99484.55
2018-03-03T23:53:25.597Z,99482.85
2018-03-03T23:55:53.703Z,99490.51
2018-03-03T23:58:21.870Z,99483.48
